createdAt,value
2022-09-25T00:00:55.232Z,43.9
2022-09-25T00:11:58.595Z,43.9
2022-09-25T00:17:35.889Z,43.9
2022-09-25T00:23:13.516Z,43.9
2022-09-25T00:28:51.433Z,43.9
2022-09-25T00:39:51.193Z,43.9
2022-09-25T00:44:57.658Z,43.9
2022-09-25T00:50:34.560Z,43.9
2022-09-25T00:56:12.425Z,43.9
2022-09-25T01:01:34.981Z,43.9
2022-09-25T01:07:12.821Z,43.9
2022-09-25T01:12:50.217Z,43.9
2022-09-25T01:18:12.370Z,43.9
2022-09-25T01:23:50.749Z,43.9
2022-09-25T01:29:28.457Z,43.9
2022-09-25T01:35:06.269Z,43.9
2022-09-25T01:40:43.502Z,43.9
2022-09-25T01:46:21.363Z,43.9
2022-09-25T01:51:41.740Z,43.9
2022-09-25T01:57:02.953Z,43.9
2022-09-25T02:02:26.012Z,43.9
2022-09-25T02:07:47.431Z,43.9
2022-09-25T02:13:08.743Z,43.9
2022-09-25T02:23:37.095Z,43.9
2022-09-25T02:28:59.129Z,43.9
2022-09-25T02:34:25.761Z,43.9
2022-09-25T02:45:09.371Z,43.9
2022-09-25T02:50:31.827Z,43.9
2022-09-25T02:56:07.538Z,43.9
2022-09-25T03:01:51.043Z,43.9
2022-09-25T03:07:13.651Z,43.9
2022-09-25T03:12:35.693Z,43.9
2022-09-25T03:23:20.356Z,43.8
2022-09-25T03:28:26.785Z,43.8
2022-09-25T03:33:33.077Z,43.8
2022-09-25T03:44:16.026Z,43.8
2022-09-25T03:49:36.738Z,43.8
2022-09-25T03:54:43.177Z,43.8
2022-09-25T03:59:50.058Z,43.8
2022-09-25T04:04:57.486Z,43.8
2022-09-25T04:10:34.664Z,43.8
2022-09-25T04:20:47.384Z,43.7
2022-09-25T04:25:41.118Z,43.7
2022-09-25T04:30:45.362Z,43.7
2022-09-25T04:36:07.488Z,43.7
2022-09-25T04:41:45.428Z,43.6
2022-09-25T04:47:11.989Z,43.6
2022-09-25T04:52:34.262Z,43.6
2022-09-25T04:58:29.677Z,43.6
2022-09-25T05:03:53.659Z,43.6
2022-09-25T05:09:16.506Z,43.6
2022-09-25T05:14:39.174Z,43.6
2022-09-25T05:20:02.085Z,43.6
2022-09-25T05:25:29.603Z,43.5
2022-09-25T05:35:59.328Z,43.5
2022-09-25T05:41:36.895Z,43.5
2022-09-25T05:47:14.906Z,43.4
2022-09-25T05:52:37.599Z,43.4
2022-09-25T05:58:00.313Z,43.4
2022-09-25T06:03:22.447Z,43.4
2022-09-25T06:14:18.227Z,43.4
2022-09-25T06:19:57.401Z,43.4
2022-09-25T06:25:37.006Z,43.3
2022-09-25T06:31:20.905Z,42.8
2022-09-25T06:37:00.537Z,42.8
2022-09-25T06:42:40.065Z,42.8
2022-09-25T06:48:23.728Z,42.6
2022-09-25T06:54:02.456Z,42.8
2022-09-25T06:59:39.168Z,43.4
2022-09-25T07:05:07.611Z,43.8
2022-09-25T07:10:46.364Z,44.2
2022-09-25T07:16:24.003Z,44.7
2022-09-25T07:22:01.792Z,45.1
2022-09-25T07:27:40.658Z,45.5
2022-09-25T07:33:18.596Z,45.9
2022-09-25T07:38:55.671Z,46.4
2022-09-25T07:45:05.234Z,46.9
2022-09-25T07:50:48.710Z,47.5
2022-09-25T07:56:10.862Z,48
2022-09-25T08:01:57.587Z,48.4
2022-09-25T08:07:38.007Z,48.9
2022-09-25T08:13:16.951Z,49.4
2022-09-25T08:18:45.735Z,49.9
2022-09-25T08:24:25.640Z,50.3
2022-09-25T08:30:05.737Z,50.9
2022-09-25T08:41:47.303Z,51.9
2022-09-25T08:47:53.115Z,52.5
2022-09-25T08:53:17.815Z,53
2022-09-25T08:59:00.998Z,53.6
2022-09-25T09:04:41.346Z,54.1
2022-09-25T09:10:34.251Z,54.7
2022-09-25T09:15:48.118Z,55.2
2022-09-25T09:20:55.967Z,55.8
2022-09-25T09:26:25.201Z,56.3
2022-09-25T09:31:33.773Z,56.8
2022-09-25T09:37:29.493Z,57.3
2022-09-25T09:48:33.920Z,57.9
2022-09-25T09:54:17.634Z,57.9
2022-09-25T10:00:00.705Z,58.4
2022-09-25T10:06:11.551Z,59.1
2022-09-25T10:11:50.843Z,59.6
2022-09-25T10:17:31.505Z,60.1
2022-09-25T10:23:14.504Z,60.7
2022-09-25T20:06:15.291Z,57.1
2022-09-25T20:11:58.935Z,57
2022-09-25T20:17:43.042Z,56.9
2022-09-25T20:23:07.576Z,56.9
2022-09-25T20:28:48.572Z,56.9
2022-09-25T20:34:29.399Z,56.9
2022-09-25T20:39:55.012Z,56.8
2022-09-25T20:45:36.084Z,56.8
2022-09-25T20:51:00.403Z,56.7
2022-09-25T20:56:41.027Z,56.6
2022-09-25T21:02:22.760Z,56.6
2022-09-25T21:08:06.472Z,56.6
2022-09-25T21:13:31.169Z,56.6
2022-09-25T21:19:11.617Z,56.5
2022-09-25T21:24:51.434Z,56.4
2022-09-25T21:30:30.619Z,56.4
2022-09-25T21:35:57.848Z,56.4
2022-09-25T21:47:04.128Z,56.3
2022-09-25T21:52:43.744Z,56.2
2022-09-25T21:58:22.064Z,56.2
2022-09-25T22:04:01.407Z,56.1
2022-09-25T22:09:40.691Z,56.1
2022-09-25T22:15:22.311Z,56.1
2022-09-25T22:20:45.311Z,56
2022-09-25T22:26:08.304Z,56
2022-09-25T22:31:46.671Z,55.9
2022-09-25T22:37:15.447Z,55.9
2022-09-25T22:42:38.326Z,55.8
2022-09-25T22:48:15.509Z,55.8
2022-09-25T22:53:52.522Z,55.8
2022-09-25T22:59:30.256Z,55.7
2022-09-25T23:05:08.252Z,55.6
2022-09-25T23:11:07.817Z,55.6
2022-09-25T23:16:46.393Z,55.6
2022-09-25T23:22:22.915Z,55.5
2022-09-25T23:28:00.278Z,55.4
2022-09-25T23:33:08.185Z,55.4
2022-09-25T23:38:44.041Z,55.4
2022-09-25T23:44:11.426Z,55.3
2022-09-25T23:49:34.648Z,55.3
2022-09-25T23:55:12.350Z,55.3
